Time;durP1;ratioP1;P1;durP2;ratioP2;P2;SDS_P1;SDS_P2;PMS_P1;PMS_P2;Temp;Humidity;BMP_temperature;BMP_pressure;BME280_temperature;BME280_humidity;BME280_pressure;Samples;Min_cycle;Max_cycle;Signal;HPM_P1;HPM_P2
2021/10/08 00:02:14;;;;;;;8.30;5.20;;;11.60;91.50;;;;;;5061303;28;20207;-76
2021/10/08 00:04:40;;;;;;;8.00;5.07;;;11.70;91.30;;;;;;5069771;28;20233;-76
2021/10/08 00:07:06;;;;;;;9.57;5.80;;;11.70;90.90;;;;;;5069401;28;20186;-75
2021/10/08 00:09:32;;;;;;;8.60;5.20;;;11.70;90.70;;;;;;5068314;28;20215;-75
2021/10/08 00:11:58;;;;;;;8.90;5.67;;;11.70;90.80;;;;;;5079655;28;20187;-76
2021/10/08 00:14:25;;;;;;;7.53;5.37;;;11.70;90.80;;;;;;5077445;28;20465;-75
2021/10/08 00:16:52;;;;;;;8.53;5.73;;;11.70;90.80;;;;;;5070553;28;20189;-76
2021/10/08 00:19:18;;;;;;;7.63;5.03;;;11.60;91.00;;;;;;5074424;28;20511;-75
2021/10/08 00:21:43;;;;;;;7.77;5.13;;;11.50;91.20;;;;;;5073876;28;20932;-76
2021/10/08 00:24:09;;;;;;;8.40;5.43;;;11.50;91.50;;;;;;5073130;28;20433;-75
2021/10/08 00:26:35;;;;;;;7.40;4.70;;;11.50;91.60;;;;;;5071725;28;20188;-74
2021/10/08 00:29:01;;;;;;;8.20;4.97;;;11.50;91.70;;;;;;5068825;28;20269;-75
2021/10/08 00:31:27;;;;;;;7.30;5.00;;;11.50;91.80;;;;;;5071241;28;20430;-75
2021/10/08 00:33:53;;;;;;;7.40;4.63;;;11.40;91.80;;;;;;5075515;28;20214;-75
2021/10/08 00:36:18;;;;;;;8.03;5.37;;;11.40;91.90;;;;;;5075589;28;20242;-75
2021/10/08 00:38:45;;;;;;;6.70;4.90;;;11.20;92.00;;;;;;5073311;28;20200;-77
2021/10/08 00:41:11;;;;;;;9.37;6.03;;;11.10;92.40;;;;;;5067226;28;20188;-75
2021/10/08 00:43:37;;;;;;;9.30;4.97;;;11.00;92.60;;;;;;5073381;28;20422;-75
2021/10/08 00:46:03;;;;;;;9.13;5.57;;;10.90;92.80;;;;;;5076992;28;20546;-77
2021/10/08 00:48:28;;;;;;;7.77;4.80;;;10.90;92.90;;;;;;5069548;28;20249;-77
2021/10/08 00:50:54;;;;;;;9.37;5.70;;;10.80;93.00;;;;;;5072898;28;20555;-76
2021/10/08 00:53:20;;;;;;;10.53;6.10;;;10.70;93.30;;;;;;5074020;28;20654;-76
2021/10/08 00:55:48;;;;;;;10.20;5.97;;;10.60;93.20;;;;;;5074150;28;20180;-76
2021/10/08 00:58:16;;;;;;;9.07;5.77;;;10.60;93.60;;;;;;5074043;28;20505;-77
2021/10/08 01:00:44;;;;;;;8.47;5.70;;;10.50;93.60;;;;;;5072979;28;20865;-75
2021/10/08 01:03:10;;;;;;;11.43;5.50;;;10.40;93.80;;;;;;5074105;28;20410;-75
2021/10/08 01:05:37;;;;;;;13.83;6.60;;;10.30;94.00;;;;;;5073804;28;20453;-75
2021/10/08 01:08:04;;;;;;;13.23;7.07;;;10.30;94.20;;;;;;5073987;28;20442;-75
2021/10/08 01:10:31;;;;;;;11.87;7.30;;;10.10;94.30;;;;;;5066735;28;20712;-75
2021/10/08 01:12:58;;;;;;;8.67;6.30;;;10.10;94.70;;;;;;5063773;28;20457;-74
2021/10/08 01:15:23;;;;;;;10.87;6.33;;;10.00;94.80;;;;;;5073752;28;20804;-77
2021/10/08 01:17:54;;;;;;;9.20;5.80;;;10.00;94.90;;;;;;5072762;28;20425;-77
2021/10/08 01:20:21;;;;;;;10.40;6.00;;;10.00;94.90;;;;;;5073894;28;20503;-76
2021/10/08 01:22:47;;;;;;;9.30;6.20;;;10.00;95.10;;;;;;5074239;28;20424;-75
2021/10/08 01:25:13;;;;;;;10.80;6.33;;;10.00;95.10;;;;;;5074076;28;20417;-77
2021/10/08 01:27:41;;;;;;;14.33;7.03;;;9.90;95.20;;;;;;5074268;28;20429;-76
2021/10/08 01:30:08;;;;;;;10.80;6.80;;;9.80;95.30;;;;;;5072693;28;20438;-76
2021/10/08 01:32:35;;;;;;;12.40;7.27;;;9.70;95.50;;;;;;5074148;28;20780;-76
2021/10/08 01:35:01;;;;;;;11.33;6.77;;;9.70;95.60;;;;;;5073723;28;20468;-76
2021/10/08 01:37:27;;;;;;;9.33;6.37;;;9.70;95.80;;;;;;5073599;28;20438;-77
2021/10/08 01:39:53;;;;;;;10.57;6.53;;;9.70;95.80;;;;;;5067142;28;20442;-76
2021/10/08 01:42:19;;;;;;;12.20;7.80;;;9.70;95.70;;;;;;5072887;28;20448;-77
2021/10/08 01:44:45;;;;;;;9.63;6.60;;;9.60;95.70;;;;;;5074711;28;20509;-77
2021/10/08 01:47:10;;;;;;;10.90;6.50;;;9.50;95.90;;;;;;5076443;28;20920;-77
2021/10/08 01:49:36;;;;;;;12.93;6.63;;;9.50;96.00;;;;;;5076649;28;20686;-77
2021/10/08 01:52:04;;;;;;;10.67;6.70;;;9.50;96.20;;;;;;5076471;28;20180;-77
2021/10/08 01:54:30;;;;;;;11.30;6.43;;;9.50;96.20;;;;;;5070311;28;20676;-78
2021/10/08 01:56:58;;;;;;;15.63;6.80;;;9.50;96.20;;;;;;5073624;28;20502;-77
2021/10/08 01:59:24;;;;;;;10.53;6.27;;;9.50;96.20;;;;;;5070672;28;20455;-77
2021/10/08 02:01:50;;;;;;;13.30;8.30;;;9.40;96.30;;;;;;5072352;28;20431;-78
2021/10/08 02:04:15;;;;;;;15.57;7.63;;;9.40;96.20;;;;;;5063270;28;20185;-76
2021/10/08 02:06:41;;;;;;;11.40;6.20;;;9.30;96.40;;;;;;5060345;28;20226;-76
2021/10/08 02:09:08;;;;;;;11.07;6.40;;;9.30;96.60;;;;;;5070463;28;20226;-76
2021/10/08 02:11:34;;;;;;;10.77;6.87;;;9.30;96.70;;;;;;5068892;28;20673;-77
2021/10/08 02:14:00;;;;;;;12.17;7.70;;;9.30;96.70;;;;;;5072540;28;20553;-76
2021/10/08 02:16:26;;;;;;;10.93;6.60;;;9.30;96.70;;;;;;5073034;28;20909;-76
2021/10/08 02:18:54;;;;;;;15.30;7.57;;;9.30;96.70;;;;;;5071662;28;20463;-78
2021/10/08 02:21:21;;;;;;;9.40;6.10;;;9.30;96.70;;;;;;5069077;28;20517;-76
2021/10/08 02:23:47;;;;;;;15.00;7.57;;;9.30;96.70;;;;;;5059145;28;20796;-77
2021/10/08 02:26:14;;;;;;;11.60;7.00;;;9.20;96.80;;;;;;5070184;28;20429;-77
2021/10/08 02:28:40;;;;;;;14.20;7.60;;;9.20;96.90;;;;;;5060290;28;20426;-77
2021/10/08 02:31:06;;;;;;;12.37;6.77;;;9.20;96.90;;;;;;5061767;28;20422;-77
2021/10/08 02:33:34;;;;;;;13.90;8.00;;;9.10;97.00;;;;;;5072901;28;20551;-78
2021/10/08 02:36:04;;;;;;;13.27;7.60;;;9.10;97.10;;;;;;5067225;28;20783;-77
2021/10/08 02:38:30;;;;;;;11.10;7.53;;;9.10;97.20;;;;;;5071346;28;20446;-77
2021/10/08 02:40:56;;;;;;;11.20;7.10;;;9.10;97.30;;;;;;5071071;28;20523;-76
2021/10/08 02:43:23;;;;;;;13.13;7.87;;;9.10;97.30;;;;;;5074714;28;20414;-77
2021/10/08 02:45:49;;;;;;;15.87;8.50;;;9.10;97.20;;;;;;5073157;28;20448;-76
2021/10/08 02:48:16;;;;;;;13.50;7.33;;;9.10;97.20;;;;;;5073503;28;20510;-76
2021/10/08 02:50:41;;;;;;;13.47;7.87;;;9.00;97.20;;;;;;5074088;28;20453;-76
2021/10/08 02:53:07;;;;;;;13.17;8.77;;;9.00;97.20;;;;;;5072113;28;20422;-76
2021/10/08 02:55:33;;;;;;;15.80;8.90;;;9.00;97.30;;;;;;5069840;28;20219;-76
2021/10/08 02:57:59;;;;;;;13.50;7.50;;;9.00;97.30;;;;;;5069110;28;20415;-76
2021/10/08 03:00:25;;;;;;;16.13;7.73;;;9.00;97.40;;;;;;5072367;28;20206;-76
2021/10/08 03:02:51;;;;;;;16.03;8.87;;;9.00;97.30;;;;;;5076564;28;20475;-76
2021/10/08 03:05:17;;;;;;;13.03;8.40;;;9.00;97.40;;;;;;5079238;28;20426;-75
2021/10/08 03:07:43;;;;;;;13.90;8.23;;;9.00;97.30;;;;;;5079426;28;20188;-76
2021/10/08 03:10:10;;;;;;;13.33;8.10;;;9.00;97.40;;;;;;5079680;28;20456;-77
2021/10/08 03:12:42;;;;;;;15.43;9.50;;;9.00;97.40;;;;;;5080485;28;20634;-77
2021/10/08 03:15:08;;;;;;;13.17;8.87;;;9.00;97.40;;;;;;5073228;28;20462;-76
2021/10/08 03:17:34;;;;;;;18.10;9.00;;;8.90;97.40;;;;;;5071054;28;20426;-77
2021/10/08 03:20:00;;;;;;;16.93;8.90;;;8.90;97.40;;;;;;5072298;28;20481;-77
2021/10/08 03:22:27;;;;;;;16.33;9.03;;;8.80;97.50;;;;;;5071252;28;20177;-77
2021/10/08 03:24:52;;;;;;;12.80;8.07;;;8.80;97.70;;;;;;5065830;28;20794;-76
2021/10/08 03:27:18;;;;;;;14.60;7.90;;;8.80;97.70;;;;;;5070261;28;20430;-75
2021/10/08 03:29:44;;;;;;;13.03;7.93;;;8.80;97.60;;;;;;5070896;28;20215;-75
2021/10/08 03:32:09;;;;;;;12.60;8.47;;;8.90;97.50;;;;;;5071247;28;20621;-75
2021/10/08 03:34:35;;;;;;;14.53;8.50;;;8.90;97.40;;;;;;5071196;28;20264;-75
2021/10/08 03:37:05;;;;;;;14.27;8.53;;;8.90;97.40;;;;;;5070812;28;20203;-76
2021/10/08 03:39:37;;;;;;;15.70;8.43;;;8.90;97.30;;;;;;5071499;28;20220;-76
2021/10/08 03:42:04;;;;;;;15.10;8.60;;;8.90;97.30;;;;;;5071330;28;21087;-76
2021/10/08 03:44:36;;;;;;;13.63;8.27;;;8.80;97.40;;;;;;5051073;28;20515;-75
2021/10/08 03:47:12;;;;;;;17.03;10.03;;;8.80;97.40;;;;;;5065660;28;20552;-76
2021/10/08 03:49:38;;;;;;;18.03;10.50;;;8.80;97.40;;;;;;5063202;28;20546;-77
2021/10/08 03:52:03;;;;;;;14.83;8.33;;;8.70;97.50;;;;;;5069949;28;20924;-75
2021/10/08 03:54:29;;;;;;;15.30;9.20;;;8.70;97.50;;;;;;5067532;28;20321;-75
2021/10/08 03:56:55;;;;;;;15.63;9.47;;;8.70;97.50;;;;;;5068392;28;20171;-76
2021/10/08 03:59:21;;;;;;;17.53;9.70;;;8.70;97.60;;;;;;5064409;28;20208;-76
2021/10/08 04:01:47;;;;;;;15.47;9.10;;;8.70;97.80;;;;;;5067158;28;20191;-75
2021/10/08 04:04:12;;;;;;;18.37;9.20;;;8.80;97.80;;;;;;5067478;28;20479;-76
2021/10/08 04:06:38;;;;;;;16.37;9.50;;;8.80;97.70;;;;;;5067742;28;20823;-76
2021/10/08 04:09:06;;;;;;;16.87;8.93;;;8.70;97.50;;;;;;5073220;28;20298;-76
2021/10/08 04:11:32;;;;;;;13.20;8.47;;;8.70;97.50;;;;;;5073728;28;20270;-74
2021/10/08 04:13:57;;;;;;;13.87;8.50;;;8.70;97.50;;;;;;5072538;28;20552;-74
2021/10/08 04:16:24;;;;;;;15.37;8.77;;;8.60;97.60;;;;;;5074659;28;20422;-75
2021/10/08 04:18:50;;;;;;;17.60;9.00;;;8.60;97.60;;;;;;5073711;28;20184;-75
2021/10/08 04:21:16;;;;;;;21.90;11.07;;;8.60;97.60;;;;;;5061549;28;20422;-75
2021/10/08 04:23:43;;;;;;;16.07;8.80;;;8.60;97.70;;;;;;5071067;28;20425;-75
2021/10/08 04:26:09;;;;;;;15.03;9.37;;;8.60;97.70;;;;;;5073453;28;20426;-73
2021/10/08 04:28:35;;;;;;;17.90;10.17;;;8.60;97.70;;;;;;5075127;28;20430;-73
2021/10/08 04:31:01;;;;;;;17.90;9.77;;;8.60;97.70;;;;;;5073693;28;20444;-73
2021/10/08 04:33:27;;;;;;;17.20;10.00;;;8.60;97.60;;;;;;5078128;28;20422;-73
2021/10/08 04:35:59;;;;;;;17.10;9.67;;;8.50;97.60;;;;;;5080780;28;20232;-74
2021/10/08 04:38:27;;;;;;;20.60;9.97;;;8.50;97.70;;;;;;5072808;28;20453;-73
2021/10/08 04:40:53;;;;;;;17.67;9.73;;;8.50;97.80;;;;;;5073380;28;20438;-73
2021/10/08 04:43:19;;;;;;;18.13;10.50;;;8.50;97.80;;;;;;5076475;28;20428;-74
2021/10/08 04:45:45;;;;;;;19.70;10.70;;;8.50;97.90;;;;;;5072379;28;20478;-74
2021/10/08 04:48:11;;;;;;;17.30;10.10;;;8.50;97.90;;;;;;5074973;28;20425;-74
2021/10/08 04:50:37;;;;;;;19.80;10.23;;;8.50;97.90;;;;;;5074436;28;20795;-74
2021/10/08 04:53:32;;;;;;;17.20;10.10;;;8.50;97.90;;;;;;5079841;28;20422;-75
2021/10/08 04:55:58;;;;;;;20.53;10.77;;;8.50;97.80;;;;;;5064757;28;20766;-74
2021/10/08 04:58:24;;;;;;;18.37;10.37;;;8.50;97.80;;;;;;5044654;28;20431;-75
2021/10/08 05:00:49;;;;;;;17.97;10.23;;;8.40;97.80;;;;;;5052488;28;20463;-73
2021/10/08 05:03:17;;;;;;;24.90;9.97;;;8.40;97.90;;;;;;5051546;28;20212;-74
2021/10/08 05:05:47;;;;;;;18.03;10.33;;;8.40;97.90;;;;;;5033756;28;20203;-75
2021/10/08 05:08:15;;;;;;;18.40;9.20;;;8.40;97.90;;;;;;5049816;28;20427;-74
2021/10/08 05:10:41;;;;;;;17.93;10.23;;;8.50;97.80;;;;;;5051362;28;21000;-74
2021/10/08 05:13:07;;;;;;;17.97;9.87;;;8.50;97.80;;;;;;5053778;28;20490;-74
2021/10/08 05:15:33;;;;;;;19.43;9.43;;;8.40;97.70;;;;;;5052883;28;21240;-74
2021/10/08 05:17:59;;;;;;;16.23;9.30;;;8.40;97.70;;;;;;5050320;28;20423;-76
2021/10/08 05:20:25;;;;;;;17.13;9.60;;;8.40;97.80;;;;;;5034303;28;20304;-75
2021/10/08 05:22:51;;;;;;;17.40;9.43;;;8.40;97.80;;;;;;5050625;28;20518;-75
2021/10/08 05:25:17;;;;;;;20.93;10.30;;;8.40;97.80;;;;;;5049533;28;20319;-73
2021/10/08 05:27:43;;;;;;;18.27;10.33;;;8.40;97.90;;;;;;5050103;28;20265;-73
2021/10/08 05:30:10;;;;;;;19.37;10.03;;;8.40;97.90;;;;;;5033877;28;20888;-74
2021/10/08 05:32:35;;;;;;;17.47;9.87;;;8.40;97.90;;;;;;5063534;28;20517;-74
2021/10/08 05:35:01;;;;;;;27.70;11.00;;;8.40;97.90;;;;;;5072180;28;20560;-76
2021/10/08 05:37:27;;;;;;;32.77;11.13;;;8.40;97.90;;;;;;5072852;28;20172;-74
2021/10/08 05:39:53;;;;;;;36.93;12.17;;;8.50;97.90;;;;;;5074771;28;20446;-74
2021/10/08 05:42:18;;;;;;;69.47;15.70;;;8.40;97.90;;;;;;5075846;28;20218;-74
2021/10/08 05:44:44;;;;;;;31.20;11.60;;;8.40;98.00;;;;;;5076084;28;20215;-75
2021/10/08 05:47:10;;;;;;;28.33;11.40;;;8.50;98.00;;;;;;5073996;28;20642;-74
2021/10/08 05:49:35;;;;;;;23.20;12.07;;;8.40;98.00;;;;;;5078159;28;20204;-76
2021/10/08 05:52:01;;;;;;;23.50;11.73;;;8.40;98.00;;;;;;5075048;28;20293;-74
2021/10/08 05:54:27;;;;;;;21.43;10.87;;;8.50;98.10;;;;;;5080533;28;20204;-73
2021/10/08 05:56:52;;;;;;;18.57;10.60;;;8.50;98.10;;;;;;5086040;28;20184;-73
2021/10/08 05:59:18;;;;;;;18.27;11.73;;;8.50;97.90;;;;;;5084393;28;20208;-74
2021/10/08 06:01:44;;;;;;;19.90;10.40;;;8.50;97.90;;;;;;5076070;28;20188;-73
2021/10/08 06:04:10;;;;;;;22.70;11.40;;;8.50;97.90;;;;;;5073626;28;20191;-73
2021/10/08 06:06:35;;;;;;;20.90;11.20;;;8.50;97.90;;;;;;5076285;28;20191;-74
2021/10/08 06:09:02;;;;;;;18.97;10.33;;;8.60;97.80;;;;;;5075464;28;20207;-75
2021/10/08 06:11:31;;;;;;;23.20;13.40;;;8.60;97.80;;;;;;5073021;28;20184;-74
2021/10/08 06:13:57;;;;;;;22.27;11.80;;;8.60;97.70;;;;;;5070848;28;20495;-75
2021/10/08 06:16:23;;;;;;;22.60;10.87;;;8.60;97.70;;;;;;5071391;28;20426;-75
2021/10/08 06:18:49;;;;;;;25.27;12.10;;;8.60;97.70;;;;;;5070057;28;20190;-74
2021/10/08 06:21:14;;;;;;;25.30;11.60;;;8.60;97.70;;;;;;5071203;28;20418;-73
2021/10/08 06:23:40;;;;;;;29.93;13.30;;;8.60;97.70;;;;;;5070359;28;20184;-75
2021/10/08 06:26:06;;;;;;;20.77;12.00;;;8.50;97.50;;;;;;5070103;28;20184;-74
2021/10/08 06:28:32;;;;;;;24.43;13.17;;;8.50;97.70;;;;;;5069297;28;20187;-73
2021/10/08 06:30:58;;;;;;;22.90;11.40;;;8.60;97.70;;;;;;5068784;28;20494;-74
2021/10/08 06:33:24;;;;;;;28.00;13.37;;;8.60;97.70;;;;;;5070157;28;20932;-75
2021/10/08 06:35:51;;;;;;;30.43;13.73;;;8.70;97.80;;;;;;5071329;28;20299;-73
2021/10/08 06:38:17;;;;;;;30.07;12.10;;;8.80;97.80;;;;;;5068981;28;20203;-74
2021/10/08 06:40:43;;;;;;;22.40;11.80;;;8.80;97.70;;;;;;5071339;28;20971;-74
2021/10/08 06:43:09;;;;;;;23.60;12.30;;;8.80;97.60;;;;;;5071324;28;20415;-74
2021/10/08 06:45:36;;;;;;;20.87;10.77;;;8.90;97.50;;;;;;5070586;28;20491;-76
2021/10/08 06:48:01;;;;;;;22.07;12.80;;;8.90;97.50;;;;;;5069823;28;20557;-75
2021/10/08 06:50:28;;;;;;;22.20;12.80;;;9.00;97.40;;;;;;5069970;28;20530;-74
2021/10/08 06:52:53;;;;;;;21.73;12.57;;;9.00;97.10;;;;;;5066257;28;20422;-73
2021/10/08 06:55:19;;;;;;;25.73;12.47;;;9.00;97.00;;;;;;5073093;28;20495;-75
2021/10/08 06:57:45;;;;;;;28.27;14.00;;;9.10;97.00;;;;;;5071289;28;20897;-73
2021/10/08 07:00:11;;;;;;;27.13;15.27;;;9.10;96.90;;;;;;5067463;28;20697;-75
2021/10/08 07:02:54;;;;;;;25.50;13.50;;;9.10;96.80;;;;;;5070139;28;20192;-76
2021/10/08 07:05:22;;;;;;;22.80;13.70;;;9.20;96.60;;;;;;5069502;28;20821;-74
2021/10/08 07:07:49;;;;;;;26.40;14.07;;;9.20;96.40;;;;;;5068442;28;20531;-73
2021/10/08 07:10:15;;;;;;;21.33;12.60;;;9.30;96.30;;;;;;5069773;28;20846;-74
2021/10/08 07:12:41;;;;;;;21.30;12.63;;;9.40;96.40;;;;;;5070276;28;20430;-74
2021/10/08 07:15:16;;;;;;;28.60;14.30;;;9.40;96.30;;;;;;5063419;28;20522;-73
2021/10/08 07:17:44;;;;;;;27.20;13.60;;;9.50;96.30;;;;;;5068116;28;20836;-74
2021/10/08 07:20:13;;;;;;;23.90;13.10;;;9.60;96.10;;;;;;5059415;28;20534;-73
2021/10/08 07:22:39;;;;;;;25.33;13.10;;;9.70;95.60;;;;;;5069585;28;20464;-74
2021/10/08 07:25:09;;;;;;;22.63;12.50;;;9.60;95.10;;;;;;5067852;28;20942;-73
2021/10/08 07:27:36;;;;;;;25.83;14.70;;;9.70;95.10;;;;;;5057701;28;20500;-76
2021/10/08 07:30:04;;;;;;;26.43;12.97;;;9.60;95.00;;;;;;5063268;28;20441;-74
2021/10/08 07:32:29;;;;;;;22.30;12.20;;;9.60;95.30;;;;;;5069763;28;20434;-74
2021/10/08 07:34:55;;;;;;;27.83;13.57;;;9.80;95.10;;;;;;5067644;28;20468;-73
2021/10/08 07:37:22;;;;;;;22.70;12.53;;;9.80;94.90;;;;;;5068213;28;20822;-75
2021/10/08 07:39:48;;;;;;;24.37;13.13;;;9.90;94.90;;;;;;5072785;28;20450;-74
2021/10/08 07:42:14;;;;;;;23.07;12.27;;;10.00;94.70;;;;;;5068176;28;20434;-75
2021/10/08 07:44:40;;;;;;;21.30;12.60;;;10.10;94.70;;;;;;5069206;28;20475;-73
2021/10/08 07:47:06;;;;;;;28.03;12.90;;;10.10;94.40;;;;;;5069333;28;20209;-74
2021/10/08 07:49:32;;;;;;;27.43;12.30;;;10.20;94.30;;;;;;5069681;28;20438;-74
2021/10/08 07:51:58;;;;;;;25.63;13.70;;;10.30;94.20;;;;;;5070230;28;20237;-74
2021/10/08 07:54:23;;;;;;;43.43;22.47;;;10.30;94.20;;;;;;5069399;28;20242;-74
2021/10/08 07:56:49;;;;;;;35.13;19.37;;;10.40;94.20;;;;;;5069770;28;20190;-73
2021/10/08 07:59:15;;;;;;;30.07;14.60;;;10.40;94.10;;;;;;5066538;28;20219;-73
2021/10/08 08:01:41;;;;;;;29.80;14.23;;;10.40;93.70;;;;;;5074326;28;20418;-74
2021/10/08 08:04:06;;;;;;;28.30;14.20;;;10.40;93.60;;;;;;5071383;28;20188;-75
2021/10/08 08:06:32;;;;;;;28.20;14.43;;;10.50;93.40;;;;;;5069218;28;20257;-75
2021/10/08 08:08:58;;;;;;;26.13;12.63;;;10.60;93.10;;;;;;5069555;28;20280;-76
2021/10/08 08:11:24;;;;;;;27.60;14.60;;;10.70;92.70;;;;;;5057162;28;20191;-75
2021/10/08 08:13:49;;;;;;;25.70;14.53;;;10.80;92.40;;;;;;5067794;28;20194;-75
2021/10/08 08:16:16;;;;;;;26.93;14.20;;;11.00;92.10;;;;;;5069398;28;20191;-74
2021/10/08 08:18:42;;;;;;;28.80;14.43;;;11.00;92.10;;;;;;5069480;28;20540;-75
2021/10/08 08:21:08;;;;;;;27.67;14.13;;;11.10;91.90;;;;;;5069072;28;20426;-76
2021/10/08 08:23:34;;;;;;;36.23;14.53;;;11.20;91.30;;;;;;5067122;28;20230;-74
2021/10/08 08:26:00;;;;;;;22.30;12.40;;;11.30;90.90;;;;;;5069579;28;20756;-75
2021/10/08 08:28:27;;;;;;;26.33;13.37;;;11.30;90.90;;;;;;5068746;28;20418;-75
2021/10/08 08:30:54;;;;;;;22.90;13.27;;;11.40;90.80;;;;;;5068671;28;20207;-74
2021/10/08 08:33:20;;;;;;;22.90;13.60;;;11.50;90.60;;;;;;5068789;28;20472;-75
2021/10/08 08:35:46;;;;;;;26.63;13.37;;;11.50;90.30;;;;;;5067868;28;20525;-74
2021/10/08 08:38:12;;;;;;;31.40;12.60;;;11.60;90.30;;;;;;5068963;28;20445;-75
2021/10/08 08:40:38;;;;;;;23.60;12.63;;;11.70;90.20;;;;;;5069101;28;20448;-74
2021/10/08 08:43:04;;;;;;;20.60;11.40;;;11.70;89.70;;;;;;5068506;28;20460;-75
2021/10/08 08:45:32;;;;;;;22.27;11.60;;;11.80;89.60;;;;;;5067545;28;20507;-75
2021/10/08 08:48:06;;;;;;;30.90;13.10;;;11.90;89.50;;;;;;5068679;28;20433;-74
2021/10/08 08:50:35;;;;;;;26.40;13.13;;;12.10;89.60;;;;;;5067848;28;20467;-76
2021/10/08 08:53:01;;;;;;;20.30;12.73;;;12.20;88.70;;;;;;5069995;28;20429;-74
2021/10/08 08:55:27;;;;;;;26.13;13.70;;;12.30;88.30;;;;;;5073112;28;20964;-74
2021/10/08 08:57:53;;;;;;;22.63;12.03;;;12.50;88.00;;;;;;5071299;28;20425;-74
2021/10/08 09:00:20;;;;;;;25.07;11.83;;;12.70;87.00;;;;;;5073247;28;20441;-74
2021/10/08 09:02:54;;;;;;;21.93;11.70;;;12.80;86.80;;;;;;5073356;28;21315;-74
2021/10/08 09:05:29;;;;;;;20.80;11.67;;;12.90;86.00;;;;;;5073454;28;20431;-76
2021/10/08 09:07:57;;;;;;;22.03;11.97;;;13.10;85.30;;;;;;5072720;28;20436;-73
2021/10/08 09:10:28;;;;;;;24.07;11.33;;;13.20;85.50;;;;;;5071345;28;20449;-74
2021/10/08 09:12:56;;;;;;;17.90;10.87;;;13.30;84.40;;;;;;5073547;28;20426;-74
2021/10/08 09:15:24;;;;;;;31.87;16.60;;;13.50;84.10;;;;;;5071785;28;20571;-75
2021/10/08 09:18:05;;;;;;;18.73;11.27;;;13.60;83.60;;;;;;5072948;28;20897;-76
2021/10/08 09:20:31;;;;;;;19.77;10.60;;;13.70;83.60;;;;;;5071862;28;20438;-75
2021/10/08 09:22:56;;;;;;;21.10;11.27;;;13.80;83.30;;;;;;5065354;28;20418;-74
2021/10/08 09:25:33;;;;;;;21.50;11.07;;;14.00;82.50;;;;;;5071516;28;20186;-75
2021/10/08 09:28:03;;;;;;;24.53;12.60;;;14.10;81.70;;;;;;5070382;28;20188;-74
2021/10/08 09:30:38;;;;;;;21.03;11.47;;;14.10;80.80;;;;;;5071983;28;20446;-75
2021/10/08 09:33:09;;;;;;;21.43;12.20;;;14.00;81.40;;;;;;5070320;28;20448;-73
2021/10/08 09:35:36;;;;;;;22.17;12.00;;;13.90;81.90;;;;;;5071664;28;20469;-74
2021/10/08 09:38:04;;;;;;;24.17;13.70;;;13.80;81.90;;;;;;5072040;28;20932;-74
2021/10/08 09:40:32;;;;;;;21.20;12.63;;;13.80;82.50;;;;;;5071552;28;20547;-73
2021/10/08 09:43:28;;;;;;;21.43;12.67;;;13.80;82.70;;;;;;5071685;28;20475;-76
2021/10/08 09:45:54;;;;;;;18.93;10.67;;;13.90;82.50;;;;;;5067169;28;20424;-75
2021/10/08 09:48:22;;;;;;;19.33;11.23;;;13.80;82.70;;;;;;5070753;28;20426;-75
2021/10/08 09:51:01;;;;;;;18.93;11.00;;;13.70;83.10;;;;;;5071474;28;20210;-75
2021/10/08 09:53:27;;;;;;;23.83;12.13;;;13.80;83.30;;;;;;5069604;28;20422;-75
2021/10/08 09:55:53;;;;;;;20.30;11.00;;;13.80;83.10;;;;;;5071655;28;20465;-75
2021/10/08 09:58:20;;;;;;;27.97;13.10;;;13.90;83.30;;;;;;5067900;28;20181;-75
2021/10/08 10:00:51;;;;;;;21.37;12.77;;;14.00;83.30;;;;;;5070226;28;20586;-75
2021/10/08 10:03:18;;;;;;;21.00;10.77;;;14.00;82.70;;;;;;5070808;28;20445;-76
2021/10/08 10:05:44;;;;;;;27.13;12.70;;;14.10;82.80;;;;;;5070569;28;20442;-74
2021/10/08 10:08:12;;;;;;;19.50;10.43;;;14.10;82.50;;;;;;5071128;28;20503;-76
2021/10/08 10:10:39;;;;;;;30.17;15.63;;;14.20;82.70;;;;;;5071602;28;20866;-75
2021/10/08 10:13:08;;;;;;;19.43;10.87;;;14.30;82.50;;;;;;5071031;28;20430;-73
2021/10/08 10:15:35;;;;;;;16.70;10.40;;;14.40;82.20;;;;;;5066996;28;20887;-74
2021/10/08 10:18:09;;;;;;;41.67;15.60;;;14.50;81.80;;;;;;5070789;28;20484;-73
2021/10/08 10:20:38;;;;;;;22.80;11.60;;;14.50;82.10;;;;;;5071451;28;20449;-75
2021/10/08 10:23:08;;;;;;;22.73;11.80;;;14.50;81.50;;;;;;5069745;28;20426;-74
2021/10/08 10:25:35;;;;;;;20.57;11.27;;;14.40;82.20;;;;;;5071467;28;20429;-74
2021/10/08 10:28:01;;;;;;;22.30;10.87;;;14.40;82.50;;;;;;5072196;28;20422;-74
2021/10/08 10:30:27;;;;;;;21.33;11.63;;;14.40;82.50;;;;;;5069856;28;20454;-75
2021/10/08 10:32:54;;;;;;;30.50;12.93;;;14.40;82.80;;;;;;5071543;28;20466;-76
2021/10/08 10:35:39;;;;;;;19.70;12.20;;;14.60;82.70;;;;;;5071995;28;20470;-76
2021/10/08 10:38:26;;;;;;;21.70;11.17;;;14.70;82.10;;;;;;5070388;28;20435;-75
2021/10/08 10:41:07;;;;;;;19.40;11.30;;;14.70;81.80;;;;;;5070990;28;20519;-74
2021/10/08 10:43:34;;;;;;;24.63;12.10;;;14.70;81.80;;;;;;5070489;28;20456;-75
2021/10/08 10:46:26;;;;;;;41.30;15.10;;;14.70;82.10;;;;;;5072798;28;20426;-76
2021/10/08 10:52:03;;;;;;;20.97;11.03;;;14.90;81.70;;;;;;5069005;28;20407;-73
2021/10/08 10:54:38;;;;;;;21.20;11.30;;;15.00;81.50;;;;;;5070242;28;20481;-75
2021/10/08 10:57:06;;;;;;;17.90;11.20;;;15.10;81.70;;;;;;5072455;28;20426;-72
2021/10/08 10:59:36;;;;;;;30.93;12.70;;;15.10;81.20;;;;;;5067165;28;20500;-74
2021/10/08 11:04:34;;;;;;;18.60;10.93;;;15.20;80.20;;;;;;5071332;28;20475;-76
2021/10/08 11:07:03;;;;;;;21.63;11.63;;;15.10;80.20;;;;;;5070593;28;20460;-74
2021/10/08 11:09:29;;;;;;;21.27;10.73;;;15.00;80.30;;;;;;5068221;28;20446;-75
2021/10/08 11:12:42;;;;;;;22.73;10.70;;;14.90;81.20;;;;;;5070983;28;20495;-76
2021/10/08 11:15:17;;;;;;;19.73;11.27;;;15.00;80.90;;;;;;5065369;28;20485;-74
2021/10/08 11:17:59;;;;;;;18.87;11.00;;;15.00;80.90;;;;;;5069527;28;20959;-76
2021/10/08 11:20:30;;;;;;;17.50;10.00;;;15.10;80.60;;;;;;5068760;28;20441;-76
2021/10/08 11:22:57;;;;;;;27.17;12.17;;;15.10;80.60;;;;;;5069804;28;20422;-73
2021/10/08 11:25:24;;;;;;;18.10;11.27;;;15.20;80.50;;;;;;5069659;28;20426;-76
2021/10/08 11:27:50;;;;;;;19.53;10.63;;;15.30;80.00;;;;;;5063377;28;20423;-75
2021/10/08 11:30:16;;;;;;;18.40;10.27;;;15.20;79.90;;;;;;5066684;28;20878;-75
2021/10/08 11:32:46;;;;;;;15.57;10.20;;;15.20;80.30;;;;;;5070689;28;20908;-75
2021/10/08 11:35:18;;;;;;;17.20;10.80;;;15.20;80.30;;;;;;5068512;28;20967;-73
2021/10/08 11:37:48;;;;;;;21.83;10.77;;;15.20;79.70;;;;;;5069938;28;20445;-76
2021/10/08 11:40:36;;;;;;;17.53;9.83;;;15.10;80.90;;;;;;5070766;28;20437;-76
2021/10/08 11:43:08;;;;;;;25.03;12.50;;;15.30;80.50;;;;;;5061101;28;20430;-76
2021/10/08 11:45:46;;;;;;;20.80;11.53;;;15.50;79.90;;;;;;5066657;28;20990;-75
2021/10/08 11:53:03;;;;;;;18.60;11.10;;;15.20;80.50;;;;;;5070948;28;20210;-75
2021/10/08 11:55:38;;;;;;;21.13;10.60;;;15.10;81.20;;;;;;5062579;28;20312;-75
2021/10/08 11:58:07;;;;;;;16.30;9.50;;;15.00;81.20;;;;;;5067752;28;20438;-74
2021/10/08 12:00:44;;;;;;;21.77;11.43;;;14.90;81.90;;;;;;5071482;28;20453;-75
2021/10/08 12:03:12;;;;;;;20.40;10.03;;;14.90;82.40;;;;;;5071083;28;20425;-74
2021/10/08 12:05:48;;;;;;;18.70;9.97;;;15.00;82.10;;;;;;5070208;28;20434;-74
2021/10/08 12:08:19;;;;;;;14.07;9.50;;;15.10;82.20;;;;;;5065718;28;20434;-74
2021/10/08 12:11:03;;;;;;;18.50;10.90;;;15.10;81.80;;;;;;5067550;28;20554;-75
2021/10/08 12:13:51;;;;;;;20.30;10.77;;;15.20;81.40;;;;;;5064443;28;20789;-75
2021/10/08 12:16:25;;;;;;;19.20;10.63;;;15.20;81.40;;;;;;5069564;28;20426;-75
2021/10/08 12:18:59;;;;;;;20.37;9.90;;;15.30;81.20;;;;;;5057516;28;20415;-76
2021/10/08 12:21:50;;;;;;;18.37;10.50;;;15.40;81.10;;;;;;5071100;28;20403;-74
2021/10/08 12:24:20;;;;;;;17.07;9.60;;;15.50;80.80;;;;;;5068955;28;20416;-75
2021/10/08 12:26:58;;;;;;;18.90;10.50;;;15.40;80.80;;;;;;5069344;28;20499;-74
2021/10/08 12:29:24;;;;;;;17.00;10.00;;;15.40;80.80;;;;;;5072058;28;20442;-76
2021/10/08 12:31:52;;;;;;;18.60;9.63;;;15.40;81.40;;;;;;5062452;28;20422;-75
2021/10/08 12:34:42;;;;;;;22.33;11.47;;;15.60;80.80;;;;;;5073261;28;20462;-74
2021/10/08 12:37:11;;;;;;;18.20;10.40;;;15.60;80.20;;;;;;5074789;28;20514;-75
2021/10/08 12:39:41;;;;;;;16.70;10.47;;;15.50;80.50;;;;;;5075037;28;20514;-74
2021/10/08 12:42:13;;;;;;;16.70;9.80;;;15.60;80.80;;;;;;5072423;28;20405;-74
2021/10/08 12:44:47;;;;;;;21.23;10.40;;;15.60;80.80;;;;;;5075633;28;20517;-75
2021/10/08 12:47:26;;;;;;;30.17;12.53;;;15.70;80.60;;;;;;5064211;28;20425;-75
2021/10/08 12:49:55;;;;;;;20.63;11.10;;;15.80;80.30;;;;;;5073018;28;20984;-75
2021/10/08 12:52:32;;;;;;;21.63;11.63;;;15.80;80.00;;;;;;5073082;28;20425;-76